sensor_id;sensor_type;location;lat;lon;timestamp;P1;durP1;ratioP1;P2;durP2;ratioP2
54428;SDS011;40337;52.978;6.310;2023-01-23T00:00:30;12.57;;;8.27;;
54428;SDS011;40337;52.978;6.310;2023-01-23T00:02:56;13.85;;;8.60;;
54428;SDS011;40337;52.978;6.310;2023-01-23T00:05:22;13.95;;;8.38;;
54428;SDS011;40337;52.978;6.310;2023-01-23T00:07:47;12.32;;;8.13;;
54428;SDS011;40337;52.978;6.310;2023-01-23T00:10:13;13.30;;;8.32;;
54428;SDS011;40337;52.978;6.310;2023-01-23T00:12:42;12.95;;;8.50;;
54428;SDS011;40337;52.978;6.310;2023-01-23T00:15:09;12.55;;;8.85;;
54428;SDS011;40337;52.978;6.310;2023-01-23T00:17:36;12.50;;;8.77;;
54428;SDS011;40337;52.978;6.310;2023-01-23T00:20:04;13.35;;;8.40;;
54428;SDS011;40337;52.978;6.310;2023-01-23T00:22:30;12.77;;;8.70;;
54428;SDS011;40337;52.978;6.310;2023-01-23T00:24:56;15.73;;;9.40;;
54428;SDS011;40337;52.978;6.310;2023-01-23T00:27:22;15.32;;;9.13;;
54428;SDS011;40337;52.978;6.310;2023-01-23T00:29:47;14.63;;;9.13;;
54428;SDS011;40337;52.978;6.310;2023-01-23T00:32:13;13.27;;;8.90;;
54428;SDS011;40337;52.978;6.310;2023-01-23T00:34:38;14.85;;;9.30;;
54428;SDS011;40337;52.978;6.310;2023-01-23T00:37:04;13.70;;;9.35;;
54428;SDS011;40337;52.978;6.310;2023-01-23T00:39:29;13.70;;;8.88;;
54428;SDS011;40337;52.978;6.310;2023-01-23T00:41:55;18.67;;;8.68;;
54428;SDS011;40337;52.978;6.310;2023-01-23T00:44:20;17.65;;;9.15;;
54428;SDS011;40337;52.978;6.310;2023-01-23T00:46:46;13.48;;;8.95;;
54428;SDS011;40337;52.978;6.310;2023-01-23T00:49:12;14.93;;;8.77;;
54428;SDS011;40337;52.978;6.310;2023-01-23T00:51:38;13.43;;;8.55;;
54428;SDS011;40337;52.978;6.310;2023-01-23T00:54:05;13.10;;;8.70;;
54428;SDS011;40337;52.978;6.310;2023-01-23T00:56:31;12.95;;;8.60;;
54428;SDS011;40337;52.978;6.310;2023-01-23T00:58:56;17.15;;;8.93;;
54428;SDS011;40337;52.978;6.310;2023-01-23T01:01:22;13.63;;;8.77;;
54428;SDS011;40337;52.978;6.310;2023-01-23T01:03:48;13.05;;;8.48;;
54428;SDS011;40337;52.978;6.310;2023-01-23T01:06:13;15.35;;;8.93;;
54428;SDS011;40337;52.978;6.310;2023-01-23T01:08:39;12.02;;;8.23;;
54428;SDS011;40337;52.978;6.310;2023-01-23T01:11:05;16.10;;;9.23;;
54428;SDS011;40337;52.978;6.310;2023-01-23T01:13:30;12.65;;;8.60;;
54428;SDS011;40337;52.978;6.310;2023-01-23T01:15:56;14.88;;;9.00;;
54428;SDS011;40337;52.978;6.310;2023-01-23T01:18:25;16.15;;;9.52;;
54428;SDS011;40337;52.978;6.310;2023-01-23T01:20:51;13.52;;;8.90;;
54428;SDS011;40337;52.978;6.310;2023-01-23T01:23:17;13.40;;;9.20;;
54428;SDS011;40337;52.978;6.310;2023-01-23T01:25:42;14.27;;;9.05;;
54428;SDS011;40337;52.978;6.310;2023-01-23T01:28:08;13.38;;;8.52;;
54428;SDS011;40337;52.978;6.310;2023-01-23T01:30:34;15.32;;;9.30;;
54428;SDS011;40337;52.978;6.310;2023-01-23T01:33:00;15.50;;;8.77;;
54428;SDS011;40337;52.978;6.310;2023-01-23T01:35:26;13.32;;;9.63;;
54428;SDS011;40337;52.978;6.310;2023-01-23T01:37:52;12.95;;;8.57;;
54428;SDS011;40337;52.978;6.310;2023-01-23T01:40:22;14.13;;;9.10;;
54428;SDS011;40337;52.978;6.310;2023-01-23T01:42:54;14.85;;;9.23;;
54428;SDS011;40337;52.978;6.310;2023-01-23T01:48:26;12.15;;;9.00;;
54428;SDS011;40337;52.978;6.310;2023-01-23T01:50:59;14.23;;;9.52;;
54428;SDS011;40337;52.978;6.310;2023-01-23T01:53:26;16.13;;;9.75;;
54428;SDS011;40337;52.978;6.310;2023-01-23T01:55:55;12.57;;;9.23;;
54428;SDS011;40337;52.978;6.310;2023-01-23T01:58:21;13.05;;;9.98;;
54428;SDS011;40337;52.978;6.310;2023-01-23T02:00:47;15.77;;;9.73;;
54428;SDS011;40337;52.978;6.310;2023-01-23T02:03:12;14.23;;;9.70;;
54428;SDS011;40337;52.978;6.310;2023-01-23T02:05:44;14.48;;;9.48;;
54428;SDS011;40337;52.978;6.310;2023-01-23T02:08:14;14.98;;;10.35;;
54428;SDS011;40337;52.978;6.310;2023-01-23T02:10:52;15.07;;;10.23;;
54428;SDS011;40337;52.978;6.310;2023-01-23T02:16:01;16.60;;;11.38;;
54428;SDS011;40337;52.978;6.310;2023-01-23T02:18:30;15.80;;;10.43;;
54428;SDS011;40337;52.978;6.310;2023-01-23T02:20:59;14.88;;;9.95;;
54428;SDS011;40337;52.978;6.310;2023-01-23T02:26:33;13.38;;;10.55;;
54428;SDS011;40337;52.978;6.310;2023-01-23T02:29:02;15.10;;;10.48;;
54428;SDS011;40337;52.978;6.310;2023-01-23T02:31:29;16.33;;;11.25;;
54428;SDS011;40337;52.978;6.310;2023-01-23T02:33:56;19.17;;;11.48;;
54428;SDS011;40337;52.978;6.310;2023-01-23T02:36:24;16.70;;;10.98;;
54428;SDS011;40337;52.978;6.310;2023-01-23T02:41:23;16.75;;;11.18;;
54428;SDS011;40337;52.978;6.310;2023-01-23T02:43:54;13.18;;;10.15;;
54428;SDS011;40337;52.978;6.310;2023-01-23T02:46:22;15.90;;;10.70;;
54428;SDS011;40337;52.978;6.310;2023-01-23T02:48:48;16.65;;;11.23;;
54428;SDS011;40337;52.978;6.310;2023-01-23T02:51:14;17.15;;;11.40;;
54428;SDS011;40337;52.978;6.310;2023-01-23T02:53:41;15.55;;;11.48;;
54428;SDS011;40337;52.978;6.310;2023-01-23T02:56:07;16.88;;;11.07;;
54428;SDS011;40337;52.978;6.310;2023-01-23T02:58:33;16.30;;;10.43;;
54428;SDS011;40337;52.978;6.310;2023-01-23T03:01:17;15.70;;;10.63;;
54428;SDS011;40337;52.978;6.310;2023-01-23T03:03:44;18.33;;;11.25;;
54428;SDS011;40337;52.978;6.310;2023-01-23T03:06:09;14.93;;;11.43;;
54428;SDS011;40337;52.978;6.310;2023-01-23T03:08:35;18.55;;;11.77;;
54428;SDS011;40337;52.978;6.310;2023-01-23T03:11:11;14.35;;;11.02;;
54428;SDS011;40337;52.978;6.310;2023-01-23T03:13:39;16.08;;;11.02;;
54428;SDS011;40337;52.978;6.310;2023-01-23T03:16:04;14.32;;;11.52;;
54428;SDS011;40337;52.978;6.310;2023-01-23T03:18:31;18.58;;;11.77;;
54428;SDS011;40337;52.978;6.310;2023-01-23T03:21:01;14.80;;;10.57;;
54428;SDS011;40337;52.978;6.310;2023-01-23T03:23:27;14.52;;;11.90;;
54428;SDS011;40337;52.978;6.310;2023-01-23T03:25:53;13.88;;;11.35;;
54428;SDS011;40337;52.978;6.310;2023-01-23T03:28:23;16.05;;;11.68;;
54428;SDS011;40337;52.978;6.310;2023-01-23T03:31:08;17.42;;;11.30;;
54428;SDS011;40337;52.978;6.310;2023-01-23T03:33:33;16.98;;;11.48;;
54428;SDS011;40337;52.978;6.310;2023-01-23T03:35:59;12.90;;;10.85;;
54428;SDS011;40337;52.978;6.310;2023-01-23T03:38:25;16.42;;;11.13;;
54428;SDS011;40337;52.978;6.310;2023-01-23T03:40:51;15.38;;;11.60;;
54428;SDS011;40337;52.978;6.310;2023-01-23T03:43:35;16.90;;;11.45;;
54428;SDS011;40337;52.978;6.310;2023-01-23T03:46:00;17.38;;;11.65;;
54428;SDS011;40337;52.978;6.310;2023-01-23T03:48:26;14.70;;;11.27;;
54428;SDS011;40337;52.978;6.310;2023-01-23T03:50:51;14.35;;;11.68;;
54428;SDS011;40337;52.978;6.310;2023-01-23T03:53:17;14.95;;;11.10;;
54428;SDS011;40337;52.978;6.310;2023-01-23T03:55:46;16.13;;;12.20;;
54428;SDS011;40337;52.978;6.310;2023-01-23T03:58:11;16.13;;;11.98;;
54428;SDS011;40337;52.978;6.310;2023-01-23T04:00:37;15.43;;;11.50;;
54428;SDS011;40337;52.978;6.310;2023-01-23T04:03:03;19.23;;;12.02;;
54428;SDS011;40337;52.978;6.310;2023-01-23T04:05:28;17.02;;;12.50;;
54428;SDS011;40337;52.978;6.310;2023-01-23T04:07:54;16.63;;;12.02;;
54428;SDS011;40337;52.978;6.310;2023-01-23T04:10:21;17.38;;;12.85;;
54428;SDS011;40337;52.978;6.310;2023-01-23T04:12:46;16.90;;;12.85;;
54428;SDS011;40337;52.978;6.310;2023-01-23T04:15:12;19.05;;;12.82;;
54428;SDS011;40337;52.978;6.310;2023-01-23T04:17:37;18.45;;;12.85;;
54428;SDS011;40337;52.978;6.310;2023-01-23T04:20:03;19.15;;;13.15;;
54428;SDS011;40337;52.978;6.310;2023-01-23T04:22:29;17.27;;;12.73;;
54428;SDS011;40337;52.978;6.310;2023-01-23T04:24:55;19.23;;;13.48;;
54428;SDS011;40337;52.978;6.310;2023-01-23T04:27:20;17.40;;;13.32;;
54428;SDS011;40337;52.978;6.310;2023-01-23T04:29:46;17.30;;;12.65;;
54428;SDS011;40337;52.978;6.310;2023-01-23T04:32:14;18.52;;;13.30;;
54428;SDS011;40337;52.978;6.310;2023-01-23T04:34:39;17.90;;;14.02;;
54428;SDS011;40337;52.978;6.310;2023-01-23T04:37:05;17.73;;;12.90;;
54428;SDS011;40337;52.978;6.310;2023-01-23T04:39:31;17.88;;;13.80;;
54428;SDS011;40337;52.978;6.310;2023-01-23T04:41:57;15.65;;;12.60;;
54428;SDS011;40337;52.978;6.310;2023-01-23T04:44:22;19.23;;;13.63;;
54428;SDS011;40337;52.978;6.310;2023-01-23T04:46:49;17.02;;;13.40;;
54428;SDS011;40337;52.978;6.310;2023-01-23T04:49:17;18.58;;;13.73;;
54428;SDS011;40337;52.978;6.310;2023-01-23T04:51:43;15.55;;;13.32;;
54428;SDS011;40337;52.978;6.310;2023-01-23T04:54:10;17.08;;;13.40;;
54428;SDS011;40337;52.978;6.310;2023-01-23T04:56:36;19.13;;;14.35;;
54428;SDS011;40337;52.978;6.310;2023-01-23T04:59:01;19.38;;;14.60;;
54428;SDS011;40337;52.978;6.310;2023-01-23T05:01:27;18.67;;;13.32;;
54428;SDS011;40337;52.978;6.310;2023-01-23T05:03:53;16.33;;;13.55;;
54428;SDS011;40337;52.978;6.310;2023-01-23T05:06:18;17.95;;;13.57;;
54428;SDS011;40337;52.978;6.310;2023-01-23T05:08:44;20.23;;;14.50;;
54428;SDS011;40337;52.978;6.310;2023-01-23T05:11:10;18.80;;;14.88;;
54428;SDS011;40337;52.978;6.310;2023-01-23T05:13:36;18.83;;;14.45;;
54428;SDS011;40337;52.978;6.310;2023-01-23T05:16:02;21.42;;;15.18;;
54428;SDS011;40337;52.978;6.310;2023-01-23T05:18:27;21.15;;;14.95;;
54428;SDS011;40337;52.978;6.310;2023-01-23T05:20:53;20.88;;;14.85;;
54428;SDS011;40337;52.978;6.310;2023-01-23T05:23:19;18.60;;;14.80;;
54428;SDS011;40337;52.978;6.310;2023-01-23T05:25:44;19.40;;;14.68;;
54428;SDS011;40337;52.978;6.310;2023-01-23T05:28:10;17.48;;;14.43;;
54428;SDS011;40337;52.978;6.310;2023-01-23T05:30:35;18.80;;;14.02;;
54428;SDS011;40337;52.978;6.310;2023-01-23T05:33:01;19.25;;;14.25;;
54428;SDS011;40337;52.978;6.310;2023-01-23T05:35:26;20.77;;;15.35;;
54428;SDS011;40337;52.978;6.310;2023-01-23T05:37:52;18.63;;;15.05;;
54428;SDS011;40337;52.978;6.310;2023-01-23T05:40:18;19.33;;;15.10;;
54428;SDS011;40337;52.978;6.310;2023-01-23T05:42:44;21.58;;;15.15;;
54428;SDS011;40337;52.978;6.310;2023-01-23T05:45:10;19.58;;;14.57;;
54428;SDS011;40337;52.978;6.310;2023-01-23T05:47:36;15.10;;;13.50;;
54428;SDS011;40337;52.978;6.310;2023-01-23T05:50:03;20.25;;;14.50;;
54428;SDS011;40337;52.978;6.310;2023-01-23T05:52:29;17.25;;;13.98;;
54428;SDS011;40337;52.978;6.310;2023-01-23T05:54:55;19.58;;;15.52;;
54428;SDS011;40337;52.978;6.310;2023-01-23T05:57:21;18.00;;;14.13;;
54428;SDS011;40337;52.978;6.310;2023-01-23T05:59:47;17.40;;;13.93;;
54428;SDS011;40337;52.978;6.310;2023-01-23T06:02:12;18.15;;;14.27;;
54428;SDS011;40337;52.978;6.310;2023-01-23T06:04:38;19.85;;;14.93;;
54428;SDS011;40337;52.978;6.310;2023-01-23T06:07:03;20.30;;;14.48;;
54428;SDS011;40337;52.978;6.310;2023-01-23T06:09:29;19.90;;;14.98;;
54428;SDS011;40337;52.978;6.310;2023-01-23T06:11:55;23.15;;;15.20;;
54428;SDS011;40337;52.978;6.310;2023-01-23T06:14:20;17.90;;;14.68;;
54428;SDS011;40337;52.978;6.310;2023-01-23T06:16:46;19.25;;;15.50;;
54428;SDS011;40337;52.978;6.310;2023-01-23T06:19:11;22.05;;;16.00;;
54428;SDS011;40337;52.978;6.310;2023-01-23T06:21:37;19.88;;;14.48;;
54428;SDS011;40337;52.978;6.310;2023-01-23T06:24:02;16.67;;;14.30;;
54428;SDS011;40337;52.978;6.310;2023-01-23T06:26:28;18.20;;;14.82;;
54428;SDS011;40337;52.978;6.310;2023-01-23T06:28:54;18.98;;;14.73;;
54428;SDS011;40337;52.978;6.310;2023-01-23T06:31:19;18.10;;;15.55;;
54428;SDS011;40337;52.978;6.310;2023-01-23T06:33:48;17.98;;;14.32;;
54428;SDS011;40337;52.978;6.310;2023-01-23T06:36:17;17.48;;;14.43;;
54428;SDS011;40337;52.978;6.310;2023-01-23T06:38:43;17.23;;;14.25;;
54428;SDS011;40337;52.978;6.310;2023-01-23T06:41:09;16.73;;;14.00;;
54428;SDS011;40337;52.978;6.310;2023-01-23T06:43:34;18.45;;;14.18;;
54428;SDS011;40337;52.978;6.310;2023-01-23T06:46:00;17.50;;;13.77;;
54428;SDS011;40337;52.978;6.310;2023-01-23T06:48:25;18.75;;;14.02;;
54428;SDS011;40337;52.978;6.310;2023-01-23T06:50:51;16.73;;;13.88;;
54428;SDS011;40337;52.978;6.310;2023-01-23T06:53:17;17.83;;;13.98;;
54428;SDS011;40337;52.978;6.310;2023-01-23T06:55:43;18.15;;;13.05;;
54428;SDS011;40337;52.978;6.310;2023-01-23T06:58:09;17.23;;;13.85;;
54428;SDS011;40337;52.978;6.310;2023-01-23T07:00:35;18.30;;;14.30;;
54428;SDS011;40337;52.978;6.310;2023-01-23T07:03:00;17.55;;;13.70;;
54428;SDS011;40337;52.978;6.310;2023-01-23T07:05:30;18.67;;;14.50;;
54428;SDS011;40337;52.978;6.310;2023-01-23T07:07:56;18.27;;;13.98;;
54428;SDS011;40337;52.978;6.310;2023-01-23T07:10:22;17.80;;;13.45;;
54428;SDS011;40337;52.978;6.310;2023-01-23T07:12:48;17.50;;;13.38;;
54428;SDS011;40337;52.978;6.310;2023-01-23T07:15:14;18.40;;;14.20;;
54428;SDS011;40337;52.978;6.310;2023-01-23T07:17:40;16.60;;;13.77;;
54428;SDS011;40337;52.978;6.310;2023-01-23T07:20:06;18.42;;;14.05;;
54428;SDS011;40337;52.978;6.310;2023-01-23T07:22:32;17.52;;;13.63;;
54428;SDS011;40337;52.978;6.310;2023-01-23T07:24:58;18.52;;;14.90;;
54428;SDS011;40337;52.978;6.310;2023-01-23T07:27:24;18.98;;;14.52;;
54428;SDS011;40337;52.978;6.310;2023-01-23T07:29:49;17.60;;;14.27;;
54428;SDS011;40337;52.978;6.310;2023-01-23T07:32:15;18.08;;;14.68;;
54428;SDS011;40337;52.978;6.310;2023-01-23T07:34:41;18.55;;;14.45;;
54428;SDS011;40337;52.978;6.310;2023-01-23T07:37:06;19.05;;;14.40;;
54428;SDS011;40337;52.978;6.310;2023-01-23T07:39:32;19.63;;;14.55;;
54428;SDS011;40337;52.978;6.310;2023-01-23T07:41:57;19.65;;;14.70;;
54428;SDS011;40337;52.978;6.310;2023-01-23T07:44:23;16.55;;;14.02;;
54428;SDS011;40337;52.978;6.310;2023-01-23T07:46:49;18.92;;;13.88;;
54428;SDS011;40337;52.978;6.310;2023-01-23T07:49:14;18.38;;;13.98;;
54428;SDS011;40337;52.978;6.310;2023-01-23T07:51:40;18.42;;;13.73;;
54428;SDS011;40337;52.978;6.310;2023-01-23T07:54:06;16.27;;;13.63;;
54428;SDS011;40337;52.978;6.310;2023-01-23T07:56:31;17.27;;;14.45;;
54428;SDS011;40337;52.978;6.310;2023-01-23T07:58:57;18.50;;;13.23;;
54428;SDS011;40337;52.978;6.310;2023-01-23T08:01:23;19.00;;;14.23;;
54428;SDS011;40337;52.978;6.310;2023-01-23T08:03:49;16.80;;;14.20;;
54428;SDS011;40337;52.978;6.310;2023-01-23T08:06:15;17.83;;;13.52;;
54428;SDS011;40337;52.978;6.310;2023-01-23T08:08:40;18.95;;;14.63;;
54428;SDS011;40337;52.978;6.310;2023-01-23T08:11:06;16.77;;;13.90;;
54428;SDS011;40337;52.978;6.310;2023-01-23T08:13:35;16.88;;;14.13;;
54428;SDS011;40337;52.978;6.310;2023-01-23T08:16:02;15.77;;;13.52;;
54428;SDS011;40337;52.978;6.310;2023-01-23T08:18:28;16.30;;;13.35;;
54428;SDS011;40337;52.978;6.310;2023-01-23T08:20:55;18.77;;;13.90;;
54428;SDS011;40337;52.978;6.310;2023-01-23T08:23:25;18.75;;;14.20;;
54428;SDS011;40337;52.978;6.310;2023-01-23T08:25:53;15.90;;;13.32;;
54428;SDS011;40337;52.978;6.310;2023-01-23T08:28:19;18.92;;;13.90;;
54428;SDS011;40337;52.978;6.310;2023-01-23T08:30:46;17.02;;;14.02;;
54428;SDS011;40337;52.978;6.310;2023-01-23T08:33:12;17.42;;;12.93;;
54428;SDS011;40337;52.978;6.310;2023-01-23T08:35:37;15.57;;;13.13;;
54428;SDS011;40337;52.978;6.310;2023-01-23T08:38:03;15.98;;;13.15;;
54428;SDS011;40337;52.978;6.310;2023-01-23T08:40:29;16.17;;;13.15;;
54428;SDS011;40337;52.978;6.310;2023-01-23T08:42:55;16.23;;;12.75;;
54428;SDS011;40337;52.978;6.310;2023-01-23T08:45:20;19.08;;;13.52;;
54428;SDS011;40337;52.978;6.310;2023-01-23T08:47:46;17.52;;;13.48;;
54428;SDS011;40337;52.978;6.310;2023-01-23T08:50:12;19.42;;;13.68;;
54428;SDS011;40337;52.978;6.310;2023-01-23T08:52:38;15.70;;;13.45;;
54428;SDS011;40337;52.978;6.310;2023-01-23T08:55:04;17.73;;;13.35;;
54428;SDS011;40337;52.978;6.310;2023-01-23T08:57:29;14.70;;;12.75;;
54428;SDS011;40337;52.978;6.310;2023-01-23T08:59:55;16.35;;;13.40;;
54428;SDS011;40337;52.978;6.310;2023-01-23T09:02:21;16.65;;;13.00;;
54428;SDS011;40337;52.978;6.310;2023-01-23T09:04:46;15.55;;;12.45;;
54428;SDS011;40337;52.978;6.310;2023-01-23T09:07:12;16.33;;;13.05;;
54428;SDS011;40337;52.978;6.310;2023-01-23T09:09:38;15.02;;;12.68;;
54428;SDS011;40337;52.978;6.310;2023-01-23T09:12:03;15.85;;;12.02;;
54428;SDS011;40337;52.978;6.310;2023-01-23T09:14:29;17.05;;;13.20;;
54428;SDS011;40337;52.978;6.310;2023-01-23T09:16:54;16.08;;;12.27;;
54428;SDS011;40337;52.978;6.310;2023-01-23T09:19:20;18.98;;;12.45;;
54428;SDS011;40337;52.978;6.310;2023-01-23T09:21:45;14.13;;;11.75;;
54428;SDS011;40337;52.978;6.310;2023-01-23T09:24:11;17.45;;;13.23;;
54428;SDS011;40337;52.978;6.310;2023-01-23T09:26:37;15.02;;;12.40;;
54428;SDS011;40337;52.978;6.310;2023-01-23T09:29:02;14.90;;;12.23;;
54428;SDS011;40337;52.978;6.310;2023-01-23T09:31:28;15.32;;;11.68;;
54428;SDS011;40337;52.978;6.310;2023-01-23T09:33:53;14.25;;;11.73;;
54428;SDS011;40337;52.978;6.310;2023-01-23T09:36:19;14.80;;;11.52;;
54428;SDS011;40337;52.978;6.310;2023-01-23T09:38:46;15.52;;;11.05;;
54428;SDS011;40337;52.978;6.310;2023-01-23T09:41:15;14.63;;;11.45;;
54428;SDS011;40337;52.978;6.310;2023-01-23T09:43:56;14.00;;;10.77;;
54428;SDS011;40337;52.978;6.310;2023-01-23T09:46:54;13.85;;;10.63;;
54428;SDS011;40337;52.978;6.310;2023-01-23T09:49:40;13.38;;;10.43;;
54428;SDS011;40337;52.978;6.310;2023-01-23T09:52:14;14.75;;;11.32;;
54428;SDS011;40337;52.978;6.310;2023-01-23T09:54:45;14.52;;;11.57;;
54428;SDS011;40337;52.978;6.310;2023-01-23T09:57:18;12.05;;;10.75;;
54428;SDS011;40337;52.978;6.310;2023-01-23T10:00:03;12.20;;;10.60;;
54428;SDS011;40337;52.978;6.310;2023-01-23T10:02:35;13.05;;;10.88;;
54428;SDS011;40337;52.978;6.310;2023-01-23T10:05:01;12.50;;;10.88;;
54428;SDS011;40337;52.978;6.310;2023-01-23T10:13:03;12.15;;;10.02;;
54428;SDS011;40337;52.978;6.310;2023-01-23T10:24:00;12.82;;;10.40;;
54428;SDS011;40337;52.978;6.310;2023-01-23T10:26:33;14.07;;;10.52;;
54428;SDS011;40337;52.978;6.310;2023-01-23T10:29:14;12.70;;;9.73;;
54428;SDS011;40337;52.978;6.310;2023-01-23T10:31:43;12.23;;;9.75;;
54428;SDS011;40337;52.978;6.310;2023-01-23T10:34:26;11.80;;;9.65;;
54428;SDS011;40337;52.978;6.310;2023-01-23T10:37:06;13.23;;;9.80;;
54428;SDS011;40337;52.978;6.310;2023-01-23T10:39:49;11.27;;;9.02;;
54428;SDS011;40337;52.978;6.310;2023-01-23T10:42:21;10.13;;;8.82;;
54428;SDS011;40337;52.978;6.310;2023-01-23T10:44:49;10.07;;;7.95;;
54428;SDS011;40337;52.978;6.310;2023-01-23T10:47:26;10.50;;;7.90;;
54428;SDS011;40337;52.978;6.310;2023-01-23T10:49:58;9.02;;;7.70;;
54428;SDS011;40337;52.978;6.310;2023-01-23T10:52:37;9.00;;;7.95;;
54428;SDS011;40337;52.978;6.310;2023-01-23T10:57:48;10.10;;;8.23;;
54428;SDS011;40337;52.978;6.310;2023-01-23T11:03:24;9.93;;;7.82;;
54428;SDS011;40337;52.978;6.310;2023-01-23T11:08:29;9.10;;;7.30;;
54428;SDS011;40337;52.978;6.310;2023-01-23T11:14:05;8.23;;;6.85;;
54428;SDS011;40337;52.978;6.310;2023-01-23T11:16:35;8.52;;;7.32;;
54428;SDS011;40337;52.978;6.310;2023-01-23T11:21:52;7.75;;;6.95;;
54428;SDS011;40337;52.978;6.310;2023-01-23T11:26:56;8.75;;;6.10;;
54428;SDS011;40337;52.978;6.310;2023-01-23T11:29:25;7.45;;;6.15;;
54428;SDS011;40337;52.978;6.310;2023-01-23T11:31:54;6.65;;;5.55;;
54428;SDS011;40337;52.978;6.310;2023-01-23T11:34:26;6.75;;;5.50;;
54428;SDS011;40337;52.978;6.310;2023-01-23T11:37:01;7.85;;;6.03;;
54428;SDS011;40337;52.978;6.310;2023-01-23T11:42:15;9.45;;;5.47;;
54428;SDS011;40337;52.978;6.310;2023-01-23T11:44:43;7.65;;;5.82;;
54428;SDS011;40337;52.978;6.310;2023-01-23T11:49:54;6.90;;;5.40;;
54428;SDS011;40337;52.978;6.310;2023-01-23T11:52:46;6.13;;;5.53;;
54428;SDS011;40337;52.978;6.310;2023-01-23T12:03:51;7.40;;;5.32;;
54428;SDS011;40337;52.978;6.310;2023-01-23T12:06:45;7.35;;;6.00;;
54428;SDS011;40337;52.978;6.310;2023-01-23T12:09:25;7.32;;;6.00;;
54428;SDS011;40337;52.978;6.310;2023-01-23T12:15:17;9.73;;;5.82;;
54428;SDS011;40337;52.978;6.310;2023-01-23T12:18:08;9.15;;;6.13;;
54428;SDS011;40337;52.978;6.310;2023-01-23T12:23:42;8.88;;;6.28;;
54428;SDS011;40337;52.978;6.310;2023-01-23T12:26:19;7.13;;;6.15;;
54428;SDS011;40337;52.978;6.310;2023-01-23T12:34:10;6.90;;;6.05;;
54428;SDS011;40337;52.978;6.310;2023-01-23T12:42:28;7.30;;;6.35;;
54428;SDS011;40337;52.978;6.310;2023-01-23T12:45:02;9.07;;;6.75;;
54428;SDS011;40337;52.978;6.310;2023-01-23T12:47:38;7.85;;;6.85;;
54428;SDS011;40337;52.978;6.310;2023-01-23T12:52:45;7.93;;;6.78;;
54428;SDS011;40337;52.978;6.310;2023-01-23T12:57:44;9.10;;;6.82;;
54428;SDS011;40337;52.978;6.310;2023-01-23T13:03:25;9.82;;;6.63;;
54428;SDS011;40337;52.978;6.310;2023-01-23T13:17:14;8.18;;;7.20;;
54428;SDS011;40337;52.978;6.310;2023-01-23T13:32:20;9.40;;;7.38;;
54428;SDS011;40337;52.978;6.310;2023-01-23T13:34:51;8.52;;;7.07;;
54428;SDS011;40337;52.978;6.310;2023-01-23T13:42:35;8.48;;;7.28;;
54428;SDS011;40337;52.978;6.310;2023-01-23T13:45:17;9.27;;;8.05;;
54428;SDS011;40337;52.978;6.310;2023-01-23T13:50:52;9.77;;;7.78;;
54428;SDS011;40337;52.978;6.310;2023-01-23T13:53:24;10.40;;;7.43;;
54428;SDS011;40337;52.978;6.310;2023-01-23T13:56:10;9.27;;;8.07;;
54428;SDS011;40337;52.978;6.310;2023-01-23T13:59:02;9.02;;;8.07;;
54428;SDS011;40337;52.978;6.310;2023-01-23T14:01:57;10.93;;;8.82;;
54428;SDS011;40337;52.978;6.310;2023-01-23T14:04:54;8.95;;;7.95;;
54428;SDS011;40337;52.978;6.310;2023-01-23T14:07:36;9.57;;;8.35;;
54428;SDS011;40337;52.978;6.310;2023-01-23T14:10:32;12.05;;;8.90;;
54428;SDS011;40337;52.978;6.310;2023-01-23T14:15:32;10.52;;;9.43;;
54428;SDS011;40337;52.978;6.310;2023-01-23T14:20:49;11.40;;;9.82;;
54428;SDS011;40337;52.978;6.310;2023-01-23T14:23:19;11.38;;;9.25;;
54428;SDS011;40337;52.978;6.310;2023-01-23T14:25:50;10.00;;;8.73;;
54428;SDS011;40337;52.978;6.310;2023-01-23T14:28:16;13.02;;;9.20;;
54428;SDS011;40337;52.978;6.310;2023-01-23T14:30:52;10.57;;;9.45;;
54428;SDS011;40337;52.978;6.310;2023-01-23T14:33:19;11.20;;;9.55;;
54428;SDS011;40337;52.978;6.310;2023-01-23T14:35:45;11.60;;;10.35;;
54428;SDS011;40337;52.978;6.310;2023-01-23T14:38:13;11.25;;;10.02;;
54428;SDS011;40337;52.978;6.310;2023-01-23T14:40:51;12.80;;;9.45;;
54428;SDS011;40337;52.978;6.310;2023-01-23T14:43:18;12.02;;;10.27;;
54428;SDS011;40337;52.978;6.310;2023-01-23T14:45:46;11.25;;;10.05;;
54428;SDS011;40337;52.978;6.310;2023-01-23T14:48:16;11.63;;;10.30;;
54428;SDS011;40337;52.978;6.310;2023-01-23T14:50:44;11.25;;;10.13;;
54428;SDS011;40337;52.978;6.310;2023-01-23T14:53:11;14.45;;;11.27;;
54428;SDS011;40337;52.978;6.310;2023-01-23T14:55:39;11.50;;;10.32;;
54428;SDS011;40337;52.978;6.310;2023-01-23T14:58:10;14.35;;;11.27;;
54428;SDS011;40337;52.978;6.310;2023-01-23T15:00:38;14.35;;;11.18;;
54428;SDS011;40337;52.978;6.310;2023-01-23T15:03:09;11.93;;;10.63;;
54428;SDS011;40337;52.978;6.310;2023-01-23T15:05:36;12.88;;;11.48;;
54428;SDS011;40337;52.978;6.310;2023-01-23T15:08:17;12.75;;;11.32;;
54428;SDS011;40337;52.978;6.310;2023-01-23T15:10:48;13.48;;;11.48;;
54428;SDS011;40337;52.978;6.310;2023-01-23T15:13:22;12.35;;;10.70;;
54428;SDS011;40337;52.978;6.310;2023-01-23T15:15:59;12.27;;;10.88;;
54428;SDS011;40337;52.978;6.310;2023-01-23T15:18:28;11.93;;;10.60;;
54428;SDS011;40337;52.978;6.310;2023-01-23T15:21:00;12.57;;;10.90;;
54428;SDS011;40337;52.978;6.310;2023-01-23T15:23:29;11.85;;;10.18;;
54428;SDS011;40337;52.978;6.310;2023-01-23T15:26:09;12.27;;;10.52;;
54428;SDS011;40337;52.978;6.310;2023-01-23T15:28:39;15.15;;;11.43;;
54428;SDS011;40337;52.978;6.310;2023-01-23T15:36:47;11.73;;;10.53;;
54428;SDS011;40337;52.978;6.310;2023-01-23T15:39:31;12.55;;;10.88;;
54428;SDS011;40337;52.978;6.310;2023-01-23T15:44:38;12.50;;;10.90;;
54428;SDS011;40337;52.978;6.310;2023-01-23T15:47:04;12.43;;;10.88;;
54428;SDS011;40337;52.978;6.310;2023-01-23T15:49:31;12.93;;;11.30;;
54428;SDS011;40337;52.978;6.310;2023-01-23T15:51:59;12.27;;;10.98;;
54428;SDS011;40337;52.978;6.310;2023-01-23T15:54:31;12.30;;;10.85;;
54428;SDS011;40337;52.978;6.310;2023-01-23T15:56:58;12.27;;;10.63;;
54428;SDS011;40337;52.978;6.310;2023-01-23T15:59:25;11.95;;;10.65;;
54428;SDS011;40337;52.978;6.310;2023-01-23T16:01:51;12.60;;;10.75;;
54428;SDS011;40337;52.978;6.310;2023-01-23T16:04:17;12.98;;;10.73;;
54428;SDS011;40337;52.978;6.310;2023-01-23T16:06:43;12.88;;;11.00;;
54428;SDS011;40337;52.978;6.310;2023-01-23T16:09:14;12.13;;;10.70;;
54428;SDS011;40337;52.978;6.310;2023-01-23T16:11:57;13.77;;;10.73;;
54428;SDS011;40337;52.978;6.310;2023-01-23T16:14:23;12.25;;;10.50;;
54428;SDS011;40337;52.978;6.310;2023-01-23T16:16:49;11.95;;;10.13;;
54428;SDS011;40337;52.978;6.310;2023-01-23T16:19:15;11.55;;;10.07;;
54428;SDS011;40337;52.978;6.310;2023-01-23T16:21:40;10.95;;;9.43;;
54428;SDS011;40337;52.978;6.310;2023-01-23T16:24:21;13.07;;;10.07;;
54428;SDS011;40337;52.978;6.310;2023-01-23T16:26:48;12.02;;;9.77;;
54428;SDS011;40337;52.978;6.310;2023-01-23T16:29:22;12.15;;;9.93;;
54428;SDS011;40337;52.978;6.310;2023-01-23T16:31:50;11.98;;;9.85;;
54428;SDS011;40337;52.978;6.310;2023-01-23T16:34:16;10.93;;;9.63;;
54428;SDS011;40337;52.978;6.310;2023-01-23T16:36:42;12.65;;;10.00;;
54428;SDS011;40337;52.978;6.310;2023-01-23T16:39:08;12.50;;;10.55;;
54428;SDS011;40337;52.978;6.310;2023-01-23T16:41:42;13.48;;;10.63;;
54428;SDS011;40337;52.978;6.310;2023-01-23T16:44:10;11.23;;;10.00;;